sensor_id;sensor_type;location;lat;lon;timestamp;temperature;humidity
9033;DHT22;4551;53.164;8.210;2023-05-21T00:00:24;14.80;99.90
9033;DHT22;4551;53.164;8.210;2023-05-21T00:02:52;14.70;99.90
9033;DHT22;4551;53.164;8.210;2023-05-21T00:05:20;14.70;99.90
9033;DHT22;4551;53.164;8.210;2023-05-21T00:07:49;14.70;99.90
9033;DHT22;4551;53.164;8.210;2023-05-21T00:10:19;14.70;99.90
9033;DHT22;4551;53.164;8.210;2023-05-21T00:12:47;14.70;99.90
9033;DHT22;4551;53.164;8.210;2023-05-21T00:15:15;14.70;99.90
9033;DHT22;4551;53.164;8.210;2023-05-21T00:17:44;14.70;99.90
9033;DHT22;4551;53.164;8.210;2023-05-21T00:20:12;14.70;99.90
9033;DHT22;4551;53.164;8.210;2023-05-21T00:22:42;14.70;99.90
9033;DHT22;4551;53.164;8.210;2023-05-21T00:25:10;14.70;99.90
9033;DHT22;4551;53.164;8.210;2023-05-21T00:27:38;14.70;99.90
9033;DHT22;4551;53.164;8.210;2023-05-21T00:30:07;14.70;99.90
9033;DHT22;4551;53.164;8.210;2023-05-21T00:32:35;14.70;99.90
9033;DHT22;4551;53.164;8.210;2023-05-21T00:35:05;14.70;99.90
9033;DHT22;4551;53.164;8.210;2023-05-21T00:37:34;14.70;99.90
9033;DHT22;4551;53.164;8.210;2023-05-21T00:40:02;14.70;99.90
9033;DHT22;4551;53.164;8.210;2023-05-21T00:42:33;14.70;99.90
9033;DHT22;4551;53.164;8.210;2023-05-21T00:45:05;14.70;99.90
9033;DHT22;4551;53.164;8.210;2023-05-21T00:47:34;14.70;99.90
9033;DHT22;4551;53.164;8.210;2023-05-21T00:50:02;14.70;99.90
9033;DHT22;4551;53.164;8.210;2023-05-21T00:52:33;14.70;99.90
9033;DHT22;4551;53.164;8.210;2023-05-21T00:55:07;14.70;99.90
9033;DHT22;4551;53.164;8.210;2023-05-21T00:57:35;14.60;99.90
9033;DHT22;4551;53.164;8.210;2023-05-21T01:00:04;14.70;99.90
9033;DHT22;4551;53.164;8.210;2023-05-21T01:02:35;14.60;99.90
9033;DHT22;4551;53.164;8.210;2023-05-21T01:05:04;14.70;99.90
9033;DHT22;4551;53.164;8.210;2023-05-21T01:07:34;14.60;99.90
9033;DHT22;4551;53.164;8.210;2023-05-21T01:10:03;14.60;99.90
9033;DHT22;4551;53.164;8.210;2023-05-21T01:12:32;14.60;99.90
9033;DHT22;4551;53.164;8.210;2023-05-21T01:15:00;14.60;99.90
9033;DHT22;4551;53.164;8.210;2023-05-21T01:17:31;14.50;99.90
9033;DHT22;4551;53.164;8.210;2023-05-21T01:20:00;14.50;99.90
9033;DHT22;4551;53.164;8.210;2023-05-21T01:22:30;14.50;99.90
9033;DHT22;4551;53.164;8.210;2023-05-21T01:25:00;14.50;99.90
9033;DHT22;4551;53.164;8.210;2023-05-21T01:27:29;14.50;99.90
9033;DHT22;4551;53.164;8.210;2023-05-21T01:29:57;14.50;99.90
9033;DHT22;4551;53.164;8.210;2023-05-21T01:32:25;14.40;99.90
9033;DHT22;4551;53.164;8.210;2023-05-21T01:34:59;14.40;99.90
9033;DHT22;4551;53.164;8.210;2023-05-21T01:37:29;14.40;99.90
9033;DHT22;4551;53.164;8.210;2023-05-21T01:40:01;14.40;99.90
9033;DHT22;4551;53.164;8.210;2023-05-21T01:42:30;14.40;99.90
9033;DHT22;4551;53.164;8.210;2023-05-21T01:44:58;14.30;99.90
9033;DHT22;4551;53.164;8.210;2023-05-21T01:47:28;14.30;99.90
9033;DHT22;4551;53.164;8.210;2023-05-21T01:49:57;14.30;99.90
9033;DHT22;4551;53.164;8.210;2023-05-21T01:52:26;14.20;99.90
9033;DHT22;4551;53.164;8.210;2023-05-21T01:54:55;14.20;99.90
9033;DHT22;4551;53.164;8.210;2023-05-21T01:57:24;14.20;99.90
9033;DHT22;4551;53.164;8.210;2023-05-21T01:59:52;14.20;99.90
9033;DHT22;4551;53.164;8.210;2023-05-21T02:02:21;14.20;99.90
9033;DHT22;4551;53.164;8.210;2023-05-21T02:04:49;14.20;99.90
9033;DHT22;4551;53.164;8.210;2023-05-21T02:07:17;14.20;99.90
9033;DHT22;4551;53.164;8.210;2023-05-21T02:09:46;14.10;99.90
9033;DHT22;4551;53.164;8.210;2023-05-21T02:12:14;14.10;99.90
9033;DHT22;4551;53.164;8.210;2023-05-21T02:14:43;14.10;99.90
9033;DHT22;4551;53.164;8.210;2023-05-21T02:17:16;14.10;99.90
9033;DHT22;4551;53.164;8.210;2023-05-21T02:19:44;14.00;99.90
9033;DHT22;4551;53.164;8.210;2023-05-21T02:22:12;14.00;99.90
9033;DHT22;4551;53.164;8.210;2023-05-21T02:24:40;14.00;99.90
9033;DHT22;4551;53.164;8.210;2023-05-21T02:27:08;14.00;99.90
9033;DHT22;4551;53.164;8.210;2023-05-21T02:29:39;13.90;99.90
9033;DHT22;4551;53.164;8.210;2023-05-21T02:32:08;13.90;99.90
9033;DHT22;4551;53.164;8.210;2023-05-21T02:34:37;13.90;99.90
9033;DHT22;4551;53.164;8.210;2023-05-21T02:37:08;13.80;99.90
9033;DHT22;4551;53.164;8.210;2023-05-21T02:39:36;13.80;99.90
9033;DHT22;4551;53.164;8.210;2023-05-21T02:42:04;13.70;99.90
9033;DHT22;4551;53.164;8.210;2023-05-21T02:44:32;13.70;99.90
9033;DHT22;4551;53.164;8.210;2023-05-21T02:47:00;13.70;99.90
9033;DHT22;4551;53.164;8.210;2023-05-21T02:49:30;13.70;99.90
9033;DHT22;4551;53.164;8.210;2023-05-21T02:51:58;13.70;99.90
9033;DHT22;4551;53.164;8.210;2023-05-21T02:54:26;13.70;99.90
9033;DHT22;4551;53.164;8.210;2023-05-21T02:56:54;13.70;99.90
9033;DHT22;4551;53.164;8.210;2023-05-21T02:59:22;13.60;99.90
9033;DHT22;4551;53.164;8.210;2023-05-21T03:01:50;13.60;99.90
9033;DHT22;4551;53.164;8.210;2023-05-21T03:04:18;13.60;99.90
9033;DHT22;4551;53.164;8.210;2023-05-21T03:06:49;13.50;99.90
9033;DHT22;4551;53.164;8.210;2023-05-21T03:09:20;13.50;99.90
9033;DHT22;4551;53.164;8.210;2023-05-21T03:11:48;13.40;99.90
9033;DHT22;4551;53.164;8.210;2023-05-21T03:14:17;13.40;99.90
9033;DHT22;4551;53.164;8.210;2023-05-21T03:16:45;13.40;99.90
9033;DHT22;4551;53.164;8.210;2023-05-21T03:19:13;13.30;99.90
9033;DHT22;4551;53.164;8.210;2023-05-21T03:21:41;13.30;99.90
9033;DHT22;4551;53.164;8.210;2023-05-21T03:24:11;13.30;99.90
9033;DHT22;4551;53.164;8.210;2023-05-21T03:26:40;13.20;99.90
9033;DHT22;4551;53.164;8.210;2023-05-21T03:29:08;13.20;99.90
9033;DHT22;4551;53.164;8.210;2023-05-21T03:31:36;13.20;99.90
9033;DHT22;4551;53.164;8.210;2023-05-21T03:34:05;13.20;99.90
9033;DHT22;4551;53.164;8.210;2023-05-21T03:36:34;13.20;99.90
9033;DHT22;4551;53.164;8.210;2023-05-21T03:39:02;13.20;99.90
9033;DHT22;4551;53.164;8.210;2023-05-21T03:41:31;13.20;99.90
9033;DHT22;4551;53.164;8.210;2023-05-21T03:43:59;13.10;99.90
9033;DHT22;4551;53.164;8.210;2023-05-21T03:46:27;13.10;99.90
9033;DHT22;4551;53.164;8.210;2023-05-21T03:48:56;13.10;99.90
9033;DHT22;4551;53.164;8.210;2023-05-21T03:51:24;13.00;99.90
9033;DHT22;4551;53.164;8.210;2023-05-21T03:53:53;13.00;99.90
9033;DHT22;4551;53.164;8.210;2023-05-21T03:56:21;13.00;99.90
9033;DHT22;4551;53.164;8.210;2023-05-21T03:58:50;13.00;99.90
9033;DHT22;4551;53.164;8.210;2023-05-21T04:01:18;13.00;99.90
9033;DHT22;4551;53.164;8.210;2023-05-21T04:03:46;13.00;99.90
9033;DHT22;4551;53.164;8.210;2023-05-21T04:06:14;13.00;99.90
9033;DHT22;4551;53.164;8.210;2023-05-21T04:08:42;13.00;99.90
9033;DHT22;4551;53.164;8.210;2023-05-21T04:11:11;13.00;99.90
9033;DHT22;4551;53.164;8.210;2023-05-21T04:13:39;13.00;99.90
9033;DHT22;4551;53.164;8.210;2023-05-21T04:16:08;13.00;99.90
9033;DHT22;4551;53.164;8.210;2023-05-21T04:18:36;13.00;99.90
9033;DHT22;4551;53.164;8.210;2023-05-21T04:21:04;13.00;99.90
9033;DHT22;4551;53.164;8.210;2023-05-21T04:23:33;13.00;99.90
9033;DHT22;4551;53.164;8.210;2023-05-21T04:26:02;12.90;99.90
9033;DHT22;4551;53.164;8.210;2023-05-21T04:28:30;13.00;99.90
9033;DHT22;4551;53.164;8.210;2023-05-21T04:30:58;12.90;99.90
9033;DHT22;4551;53.164;8.210;2023-05-21T04:33:28;12.90;99.90
9033;DHT22;4551;53.164;8.210;2023-05-21T04:35:56;12.90;99.90
9033;DHT22;4551;53.164;8.210;2023-05-21T04:38:24;12.90;99.90
9033;DHT22;4551;53.164;8.210;2023-05-21T04:40:52;12.90;99.90
9033;DHT22;4551;53.164;8.210;2023-05-21T04:43:21;12.90;99.90
9033;DHT22;4551;53.164;8.210;2023-05-21T04:45:51;12.90;99.90
9033;DHT22;4551;53.164;8.210;2023-05-21T04:48:20;12.90;99.90
9033;DHT22;4551;53.164;8.210;2023-05-21T04:50:51;12.90;99.90
9033;DHT22;4551;53.164;8.210;2023-05-21T04:53:20;12.90;99.90
9033;DHT22;4551;53.164;8.210;2023-05-21T04:55:48;12.90;99.90
9033;DHT22;4551;53.164;8.210;2023-05-21T04:58:16;12.90;99.90
9033;DHT22;4551;53.164;8.210;2023-05-21T05:00:45;12.90;99.90
9033;DHT22;4551;53.164;8.210;2023-05-21T05:03:16;12.90;99.90
9033;DHT22;4551;53.164;8.210;2023-05-21T05:05:44;13.00;99.90
9033;DHT22;4551;53.164;8.210;2023-05-21T05:08:14;13.00;99.90
9033;DHT22;4551;53.164;8.210;2023-05-21T05:10:42;13.00;99.90
9033;DHT22;4551;53.164;8.210;2023-05-21T05:13:10;13.00;99.90
9033;DHT22;4551;53.164;8.210;2023-05-21T05:15:39;13.00;99.90
9033;DHT22;4551;53.164;8.210;2023-05-21T05:18:07;13.00;99.90
9033;DHT22;4551;53.164;8.210;2023-05-21T05:20:35;13.00;99.90
9033;DHT22;4551;53.164;8.210;2023-05-21T05:23:03;13.10;99.90
9033;DHT22;4551;53.164;8.210;2023-05-21T05:25:32;13.40;99.90
9033;DHT22;4551;53.164;8.210;2023-05-21T05:28:01;13.20;99.90
9033;DHT22;4551;53.164;8.210;2023-05-21T05:30:29;13.20;99.90
9033;DHT22;4551;53.164;8.210;2023-05-21T05:32:57;13.20;99.90
9033;DHT22;4551;53.164;8.210;2023-05-21T05:35:25;13.20;99.90
9033;DHT22;4551;53.164;8.210;2023-05-21T05:37:53;14.10;99.90
9033;DHT22;4551;53.164;8.210;2023-05-21T05:40:21;13.20;99.90
9033;DHT22;4551;53.164;8.210;2023-05-21T05:42:50;13.20;99.90
9033;DHT22;4551;53.164;8.210;2023-05-21T05:45:19;13.30;99.90
9033;DHT22;4551;53.164;8.210;2023-05-21T05:47:47;13.30;99.90
9033;DHT22;4551;53.164;8.210;2023-05-21T05:50:15;13.30;99.90
9033;DHT22;4551;53.164;8.210;2023-05-21T05:52:43;13.40;99.90
9033;DHT22;4551;53.164;8.210;2023-05-21T05:55:11;13.30;99.90
9033;DHT22;4551;53.164;8.210;2023-05-21T05:57:39;13.30;99.90
9033;DHT22;4551;53.164;8.210;2023-05-21T06:00:12;13.40;99.90
9033;DHT22;4551;53.164;8.210;2023-05-21T06:02:40;13.40;99.90
9033;DHT22;4551;53.164;8.210;2023-05-21T06:05:09;13.40;99.90
9033;DHT22;4551;53.164;8.210;2023-05-21T06:07:38;13.40;99.90
9033;DHT22;4551;53.164;8.210;2023-05-21T06:10:07;13.50;99.90
9033;DHT22;4551;53.164;8.210;2023-05-21T06:12:35;13.60;99.90
9033;DHT22;4551;53.164;8.210;2023-05-21T06:15:03;13.60;99.90
9033;DHT22;4551;53.164;8.210;2023-05-21T06:17:34;13.60;99.90
9033;DHT22;4551;53.164;8.210;2023-05-21T06:20:02;13.60;99.90
9033;DHT22;4551;53.164;8.210;2023-05-21T06:22:31;13.70;99.90
9033;DHT22;4551;53.164;8.210;2023-05-21T06:24:59;13.70;99.90
9033;DHT22;4551;53.164;8.210;2023-05-21T06:27:27;13.70;99.90
9033;DHT22;4551;53.164;8.210;2023-05-21T06:29:56;13.80;99.90
9033;DHT22;4551;53.164;8.210;2023-05-21T06:32:24;13.80;99.90
9033;DHT22;4551;53.164;8.210;2023-05-21T06:34:53;13.90;99.90
9033;DHT22;4551;53.164;8.210;2023-05-21T06:37:21;13.90;99.90
9033;DHT22;4551;53.164;8.210;2023-05-21T06:39:52;13.90;99.90
9033;DHT22;4551;53.164;8.210;2023-05-21T06:42:20;14.00;99.90
9033;DHT22;4551;53.164;8.210;2023-05-21T06:44:48;14.00;99.90
9033;DHT22;4551;53.164;8.210;2023-05-21T06:47:16;14.00;99.90
9033;DHT22;4551;53.164;8.210;2023-05-21T06:49:44;14.10;99.90
9033;DHT22;4551;53.164;8.210;2023-05-21T06:52:14;14.20;99.90
9033;DHT22;4551;53.164;8.210;2023-05-21T06:54:45;14.20;99.90
9033;DHT22;4551;53.164;8.210;2023-05-21T06:57:13;14.20;99.90
9033;DHT22;4551;53.164;8.210;2023-05-21T06:59:41;14.30;99.90
9033;DHT22;4551;53.164;8.210;2023-05-21T07:02:09;14.30;99.90
9033;DHT22;4551;53.164;8.210;2023-05-21T07:04:38;14.30;99.90
9033;DHT22;4551;53.164;8.210;2023-05-21T07:07:06;14.40;99.90
9033;DHT22;4551;53.164;8.210;2023-05-21T07:09:35;14.40;99.90
9033;DHT22;4551;53.164;8.210;2023-05-21T07:12:04;14.50;99.90
9033;DHT22;4551;53.164;8.210;2023-05-21T07:14:32;14.50;99.90
9033;DHT22;4551;53.164;8.210;2023-05-21T07:17:00;14.50;99.90
9033;DHT22;4551;53.164;8.210;2023-05-21T07:19:28;14.60;99.90
9033;DHT22;4551;53.164;8.210;2023-05-21T07:21:56;14.60;99.90
9033;DHT22;4551;53.164;8.210;2023-05-21T07:24:24;14.70;99.90
9033;DHT22;4551;53.164;8.210;2023-05-21T07:26:54;14.70;99.90
9033;DHT22;4551;53.164;8.210;2023-05-21T07:29:22;14.70;99.90
9033;DHT22;4551;53.164;8.210;2023-05-21T07:31:50;14.80;99.90
9033;DHT22;4551;53.164;8.210;2023-05-21T07:34:18;14.80;99.90
9033;DHT22;4551;53.164;8.210;2023-05-21T07:36:46;14.90;99.90
9033;DHT22;4551;53.164;8.210;2023-05-21T07:39:14;15.00;99.90
9033;DHT22;4551;53.164;8.210;2023-05-21T07:41:42;15.00;99.90
9033;DHT22;4551;53.164;8.210;2023-05-21T07:44:12;15.00;99.90
9033;DHT22;4551;53.164;8.210;2023-05-21T07:46:40;15.10;99.90
9033;DHT22;4551;53.164;8.210;2023-05-21T07:49:08;15.10;99.90
9033;DHT22;4551;53.164;8.210;2023-05-21T07:51:42;15.20;99.90
9033;DHT22;4551;53.164;8.210;2023-05-21T07:54:10;15.20;99.90
9033;DHT22;4551;53.164;8.210;2023-05-21T07:56:38;15.30;99.90
9033;DHT22;4551;53.164;8.210;2023-05-21T07:59:07;15.30;99.90
9033;DHT22;4551;53.164;8.210;2023-05-21T08:01:36;15.40;99.90
9033;DHT22;4551;53.164;8.210;2023-05-21T08:04:04;15.40;99.90
9033;DHT22;4551;53.164;8.210;2023-05-21T08:06:35;15.50;99.90
9033;DHT22;4551;53.164;8.210;2023-05-21T08:09:05;15.60;99.90
9033;DHT22;4551;53.164;8.210;2023-05-21T08:11:33;15.60;99.90
9033;DHT22;4551;53.164;8.210;2023-05-21T08:14:01;15.70;99.90
9033;DHT22;4551;53.164;8.210;2023-05-21T08:16:30;15.70;99.90
9033;DHT22;4551;53.164;8.210;2023-05-21T08:18:59;15.80;99.90
9033;DHT22;4551;53.164;8.210;2023-05-21T08:21:27;15.80;99.90
9033;DHT22;4551;53.164;8.210;2023-05-21T08:23:55;15.90;99.90
9033;DHT22;4551;53.164;8.210;2023-05-21T08:26:25;15.90;99.90
9033;DHT22;4551;53.164;8.210;2023-05-21T08:28:53;16.00;99.90
9033;DHT22;4551;53.164;8.210;2023-05-21T08:31:21;16.00;99.90
9033;DHT22;4551;53.164;8.210;2023-05-21T08:33:49;16.00;99.90
9033;DHT22;4551;53.164;8.210;2023-05-21T08:36:19;16.10;99.90
9033;DHT22;4551;53.164;8.210;2023-05-21T08:38:48;16.20;99.90
9033;DHT22;4551;53.164;8.210;2023-05-21T08:41:19;16.20;99.90
9033;DHT22;4551;53.164;8.210;2023-05-21T08:43:50;16.30;99.90
9033;DHT22;4551;53.164;8.210;2023-05-21T08:46:20;16.40;99.90
9033;DHT22;4551;53.164;8.210;2023-05-21T08:48:50;16.50;99.90
9033;DHT22;4551;53.164;8.210;2023-05-21T08:51:21;16.50;99.90
9033;DHT22;4551;53.164;8.210;2023-05-21T08:53:50;16.60;99.90
9033;DHT22;4551;53.164;8.210;2023-05-21T08:56:18;16.70;99.90
9033;DHT22;4551;53.164;8.210;2023-05-21T08:58:46;16.70;99.90
9033;DHT22;4551;53.164;8.210;2023-05-21T09:01:15;16.80;99.90
9033;DHT22;4551;53.164;8.210;2023-05-21T09:03:45;16.90;99.90
9033;DHT22;4551;53.164;8.210;2023-05-21T09:06:13;17.00;99.90
9033;DHT22;4551;53.164;8.210;2023-05-21T09:08:43;16.80;99.90
9033;DHT22;4551;53.164;8.210;2023-05-21T09:11:12;17.10;99.90
9033;DHT22;4551;53.164;8.210;2023-05-21T09:13:40;17.20;99.90
9033;DHT22;4551;53.164;8.210;2023-05-21T09:16:10;17.30;99.90
9033;DHT22;4551;53.164;8.210;2023-05-21T09:18:38;17.30;99.90
9033;DHT22;4551;53.164;8.210;2023-05-21T09:21:21;17.30;99.90
9033;DHT22;4551;53.164;8.210;2023-05-21T09:23:54;17.40;99.90
9033;DHT22;4551;53.164;8.210;2023-05-21T09:26:22;17.50;99.90
9033;DHT22;4551;53.164;8.210;2023-05-21T09:28:50;17.60;99.90
9033;DHT22;4551;53.164;8.210;2023-05-21T09:31:19;17.60;99.90
9033;DHT22;4551;53.164;8.210;2023-05-21T09:33:48;17.70;99.90
9033;DHT22;4551;53.164;8.210;2023-05-21T09:36:17;17.80;99.90
9033;DHT22;4551;53.164;8.210;2023-05-21T09:38:46;17.80;99.90
9033;DHT22;4551;53.164;8.210;2023-05-21T09:41:16;17.90;99.90
9033;DHT22;4551;53.164;8.210;2023-05-21T09:43:47;17.90;99.90
9033;DHT22;4551;53.164;8.210;2023-05-21T09:46:17;18.00;99.90
9033;DHT22;4551;53.164;8.210;2023-05-21T09:48:47;18.00;99.90
9033;DHT22;4551;53.164;8.210;2023-05-21T09:51:16;18.10;99.90
9033;DHT22;4551;53.164;8.210;2023-05-21T09:53:53;18.20;99.90
9033;DHT22;4551;53.164;8.210;2023-05-21T09:56:25;18.30;99.90
9033;DHT22;4551;53.164;8.210;2023-05-21T09:58:55;18.30;99.90
9033;DHT22;4551;53.164;8.210;2023-05-21T10:01:26;18.40;99.90
9033;DHT22;4551;53.164;8.210;2023-05-21T10:03:56;18.50;99.90
9033;DHT22;4551;53.164;8.210;2023-05-21T10:06:25;18.50;99.90
9033;DHT22;4551;53.164;8.210;2023-05-21T10:08:54;18.60;99.90
9033;DHT22;4551;53.164;8.210;2023-05-21T10:11:26;18.70;99.90
9033;DHT22;4551;53.164;8.210;2023-05-21T10:13:54;18.80;99.90
9033;DHT22;4551;53.164;8.210;2023-05-21T10:16:27;18.90;99.90
9033;DHT22;4551;53.164;8.210;2023-05-21T10:18:56;18.90;99.90
9033;DHT22;4551;53.164;8.210;2023-05-21T10:21:24;19.00;99.90
9033;DHT22;4551;53.164;8.210;2023-05-21T10:23:53;19.10;99.90
9033;DHT22;4551;53.164;8.210;2023-05-21T10:26:22;19.10;99.90
9033;DHT22;4551;53.164;8.210;2023-05-21T10:28:54;19.20;99.90
9033;DHT22;4551;53.164;8.210;2023-05-21T10:31:22;19.30;99.90
9033;DHT22;4551;53.164;8.210;2023-05-21T10:33:52;19.40;99.90
9033;DHT22;4551;53.164;8.210;2023-05-21T10:36:20;19.40;99.90
9033;DHT22;4551;53.164;8.210;2023-05-21T10:38:50;19.60;99.90
9033;DHT22;4551;53.164;8.210;2023-05-21T10:41:18;19.60;99.90
9033;DHT22;4551;53.164;8.210;2023-05-21T10:43:50;19.70;99.90
9033;DHT22;4551;53.164;8.210;2023-05-21T10:46:27;19.80;99.90
9033;DHT22;4551;53.164;8.210;2023-05-21T10:49:09;19.90;99.90
9033;DHT22;4551;53.164;8.210;2023-05-21T10:51:41;20.10;99.90
9033;DHT22;4551;53.164;8.210;2023-05-21T10:54:16;20.20;99.90
9033;DHT22;4551;53.164;8.210;2023-05-21T10:56:51;20.30;99.90
9033;DHT22;4551;53.164;8.210;2023-05-21T10:59:24;20.30;99.90
9033;DHT22;4551;53.164;8.210;2023-05-21T11:01:58;20.50;99.90
9033;DHT22;4551;53.164;8.210;2023-05-21T11:04:27;20.60;99.90
9033;DHT22;4551;53.164;8.210;2023-05-21T11:06:57;20.80;99.90
9033;DHT22;4551;53.164;8.210;2023-05-21T11:09:25;20.90;99.90
9033;DHT22;4551;53.164;8.210;2023-05-21T11:11:55;21.00;99.90
9033;DHT22;4551;53.164;8.210;2023-05-21T11:14:25;21.10;99.90
9033;DHT22;4551;53.164;8.210;2023-05-21T11:16:53;21.10;99.90
9033;DHT22;4551;53.164;8.210;2023-05-21T11:19:32;21.20;99.90
9033;DHT22;4551;53.164;8.210;2023-05-21T11:22:03;21.30;99.90
9033;DHT22;4551;53.164;8.210;2023-05-21T11:24:32;21.30;99.90
9033;DHT22;4551;53.164;8.210;2023-05-21T11:27:04;21.50;99.90
9033;DHT22;4551;53.164;8.210;2023-05-21T11:29:42;21.60;99.90
9033;DHT22;4551;53.164;8.210;2023-05-21T11:32:11;21.70;99.90
9033;DHT22;4551;53.164;8.210;2023-05-21T11:34:43;21.80;99.90
9033;DHT22;4551;53.164;8.210;2023-05-21T11:37:22;21.90;99.90
9033;DHT22;4551;53.164;8.210;2023-05-21T11:39:52;22.10;99.90
9033;DHT22;4551;53.164;8.210;2023-05-21T11:42:26;22.20;99.90
9033;DHT22;4551;53.164;8.210;2023-05-21T11:44:55;22.30;99.90
9033;DHT22;4551;53.164;8.210;2023-05-21T11:47:23;22.40;99.90
9033;DHT22;4551;53.164;8.210;2023-05-21T11:49:53;22.60;99.90
9033;DHT22;4551;53.164;8.210;2023-05-21T11:52:21;22.70;99.90
9033;DHT22;4551;53.164;8.210;2023-05-21T11:54:51;22.80;99.90
9033;DHT22;4551;53.164;8.210;2023-05-21T11:57:21;22.90;99.90
9033;DHT22;4551;53.164;8.210;2023-05-21T11:59:49;23.00;99.90
9033;DHT22;4551;53.164;8.210;2023-05-21T12:02:18;23.20;99.90
9033;DHT22;4551;53.164;8.210;2023-05-21T12:04:48;23.30;99.90
9033;DHT22;4551;53.164;8.210;2023-05-21T12:07:18;23.40;99.90
9033;DHT22;4551;53.164;8.210;2023-05-21T12:09:46;23.50;99.90
9033;DHT22;4551;53.164;8.210;2023-05-21T12:12:15;23.60;99.90
9033;DHT22;4551;53.164;8.210;2023-05-21T12:14:44;23.70;99.90
9033;DHT22;4551;53.164;8.210;2023-05-21T12:17:14;23.80;99.90
9033;DHT22;4551;53.164;8.210;2023-05-21T12:19:42;23.90;99.90
9033;DHT22;4551;53.164;8.210;2023-05-21T12:22:10;23.90;99.90
9033;DHT22;4551;53.164;8.210;2023-05-21T12:24:40;24.00;99.90
9033;DHT22;4551;53.164;8.210;2023-05-21T12:27:09;24.10;99.90
9033;DHT22;4551;53.164;8.210;2023-05-21T12:29:39;24.20;99.90
9033;DHT22;4551;53.164;8.210;2023-05-21T12:32:08;24.30;99.90
9033;DHT22;4551;53.164;8.210;2023-05-21T12:34:38;24.50;99.90
9033;DHT22;4551;53.164;8.210;2023-05-21T12:37:07;24.60;99.90
9033;DHT22;4551;53.164;8.210;2023-05-21T12:39:41;24.70;99.90
9033;DHT22;4551;53.164;8.210;2023-05-21T12:42:10;24.80;99.90
9033;DHT22;4551;53.164;8.210;2023-05-21T12:44:38;24.80;99.90
9033;DHT22;4551;53.164;8.210;2023-05-21T12:47:07;24.90;99.90
9033;DHT22;4551;53.164;8.210;2023-05-21T12:49:36;25.00;99.90
9033;DHT22;4551;53.164;8.210;2023-05-21T12:52:04;25.20;99.90
9033;DHT22;4551;53.164;8.210;2023-05-21T12:54:35;25.30;99.90
9033;DHT22;4551;53.164;8.210;2023-05-21T12:57:09;25.30;99.90
9033;DHT22;4551;53.164;8.210;2023-05-21T12:59:44;25.30;99.90
9033;DHT22;4551;53.164;8.210;2023-05-21T13:02:13;25.30;99.90
9033;DHT22;4551;53.164;8.210;2023-05-21T13:04:42;25.30;99.90
9033;DHT22;4551;53.164;8.210;2023-05-21T13:07:10;25.40;99.90
9033;DHT22;4551;53.164;8.210;2023-05-21T13:09:38;25.40;99.90
9033;DHT22;4551;53.164;8.210;2023-05-21T13:12:06;25.40;99.90
9033;DHT22;4551;53.164;8.210;2023-05-21T13:14:36;25.40;99.90
9033;DHT22;4551;53.164;8.210;2023-05-21T13:17:04;25.50;99.90
9033;DHT22;4551;53.164;8.210;2023-05-21T13:19:32;25.60;99.90
9033;DHT22;4551;53.164;8.210;2023-05-21T13:22:00;25.60;99.90
9033;DHT22;4551;53.164;8.210;2023-05-21T13:24:28;25.70;99.90
9033;DHT22;4551;53.164;8.210;2023-05-21T13:26:56;25.90;99.90
9033;DHT22;4551;53.164;8.210;2023-05-21T13:29:24;26.10;99.90
9033;DHT22;4551;53.164;8.210;2023-05-21T13:31:53;26.10;99.90
9033;DHT22;4551;53.164;8.210;2023-05-21T13:34:22;26.30;99.90
9033;DHT22;4551;53.164;8.210;2023-05-21T13:36:51;26.40;99.90
9033;DHT22;4551;53.164;8.210;2023-05-21T13:39:19;26.50;99.90
9033;DHT22;4551;53.164;8.210;2023-05-21T13:41:52;26.70;99.90
9033;DHT22;4551;53.164;8.210;2023-05-21T13:44:20;26.80;99.90
9033;DHT22;4551;53.164;8.210;2023-05-21T13:46:48;27.00;99.90
9033;DHT22;4551;53.164;8.210;2023-05-21T13:49:18;27.00;99.90
9033;DHT22;4551;53.164;8.210;2023-05-21T13:51:46;27.10;99.90
9033;DHT22;4551;53.164;8.210;2023-05-21T13:54:14;27.30;99.90
9033;DHT22;4551;53.164;8.210;2023-05-21T13:56:42;27.30;99.90
9033;DHT22;4551;53.164;8.210;2023-05-21T13:59:10;27.50;99.90
9033;DHT22;4551;53.164;8.210;2023-05-21T14:01:38;28.00;99.90
9033;DHT22;4551;53.164;8.210;2023-05-21T14:04:06;27.90;99.90
9033;DHT22;4551;53.164;8.210;2023-05-21T14:06:36;28.00;99.90
9033;DHT22;4551;53.164;8.210;2023-05-21T14:09:04;28.20;99.90
9033;DHT22;4551;53.164;8.210;2023-05-21T14:11:32;28.50;99.90
9033;DHT22;4551;53.164;8.210;2023-05-21T14:14:00;28.60;99.90
9033;DHT22;4551;53.164;8.210;2023-05-21T14:16:28;28.70;99.90
9033;DHT22;4551;53.164;8.210;2023-05-21T14:18:57;28.80;99.90
9033;DHT22;4551;53.164;8.210;2023-05-21T14:21:25;28.90;99.90
9033;DHT22;4551;53.164;8.210;2023-05-21T14:23:54;29.00;99.90
9033;DHT22;4551;53.164;8.210;2023-05-21T14:26:22;28.90;99.90
9033;DHT22;4551;53.164;8.210;2023-05-21T14:28:50;28.80;99.90
9033;DHT22;4551;53.164;8.210;2023-05-21T14:31:18;28.50;99.90
9033;DHT22;4551;53.164;8.210;2023-05-21T14:33:47;29.10;99.90
9033;DHT22;4551;53.164;8.210;2023-05-21T14:36:15;29.40;99.90
9033;DHT22;4551;53.164;8.210;2023-05-21T14:38:45;29.60;99.90
9033;DHT22;4551;53.164;8.210;2023-05-21T14:41:14;29.80;99.90
9033;DHT22;4551;53.164;8.210;2023-05-21T14:43:42;29.90;99.90
9033;DHT22;4551;53.164;8.210;2023-05-21T14:46:11;29.90;99.90
9033;DHT22;4551;53.164;8.210;2023-05-21T14:48:39;30.10;99.90
9033;DHT22;4551;53.164;8.210;2023-05-21T14:51:07;30.10;99.90
9033;DHT22;4551;53.164;8.210;2023-05-21T14:53:35;30.00;99.90
9033;DHT22;4551;53.164;8.210;2023-05-21T14:56:03;29.70;99.90
9033;DHT22;4551;53.164;8.210;2023-05-21T14:58:33;29.70;99.90
9033;DHT22;4551;53.164;8.210;2023-05-21T15:01:01;29.60;99.90
9033;DHT22;4551;53.164;8.210;2023-05-21T15:03:36;29.60;99.90
9033;DHT22;4551;53.164;8.210;2023-05-21T15:06:05;29.50;99.90
9033;DHT22;4551;53.164;8.210;2023-05-21T15:08:33;29.30;99.90
9033;DHT22;4551;53.164;8.210;2023-05-21T15:11:01;29.10;99.90
9033;DHT22;4551;53.164;8.210;2023-05-21T15:13:29;29.10;99.90
9033;DHT22;4551;53.164;8.210;2023-05-21T15:15:58;29.00;99.90
9033;DHT22;4551;53.164;8.210;2023-05-21T15:18:27;29.00;99.90
9033;DHT22;4551;53.164;8.210;2023-05-21T15:20:55;29.10;99.90
9033;DHT22;4551;53.164;8.210;2023-05-21T15:23:23;29.40;99.90
9033;DHT22;4551;53.164;8.210;2023-05-21T15:25:51;29.70;99.90
9033;DHT22;4551;53.164;8.210;2023-05-21T15:28:19;29.90;99.90
9033;DHT22;4551;53.164;8.210;2023-05-21T15:30:48;29.80;99.90
9033;DHT22;4551;53.164;8.210;2023-05-21T15:33:18;29.90;99.90
9033;DHT22;4551;53.164;8.210;2023-05-21T15:35:46;29.60;99.90
9033;DHT22;4551;53.164;8.210;2023-05-21T15:38:15;29.60;99.90
9033;DHT22;4551;53.164;8.210;2023-05-21T15:40:43;29.40;99.90
9033;DHT22;4551;53.164;8.210;2023-05-21T15:43:11;29.10;99.90
9033;DHT22;4551;53.164;8.210;2023-05-21T15:45:39;29.10;99.90
9033;DHT22;4551;53.164;8.210;2023-05-21T15:48:07;29.00;99.90
9033;DHT22;4551;53.164;8.210;2023-05-21T15:50:39;28.80;99.90
9033;DHT22;4551;53.164;8.210;2023-05-21T15:53:09;28.60;99.90
9033;DHT22;4551;53.164;8.210;2023-05-21T15:55:37;28.50;99.90
9033;DHT22;4551;53.164;8.210;2023-05-21T15:58:05;28.50;99.90
9033;DHT22;4551;53.164;8.210;2023-05-21T16:00:33;28.40;99.90
9033;DHT22;4551;53.164;8.210;2023-05-21T16:03:02;28.30;99.90
9033;DHT22;4551;53.164;8.210;2023-05-21T16:05:30;28.20;99.90
9033;DHT22;4551;53.164;8.210;2023-05-21T16:07:59;28.20;99.90
9033;DHT22;4551;53.164;8.210;2023-05-21T16:10:28;28.10;99.90
9033;DHT22;4551;53.164;8.210;2023-05-21T16:12:56;28.10;99.90